Time;durP1;ratioP1;P1;durP2;ratioP2;P2;SDS_P1;SDS_P2;PMS_P1;PMS_P2;Temp;Humidity;BMP_temperature;BMP_pressure;BME280_temperature;BME280_humidity;BME280_pressure;Samples;Min_cycle;Max_cycle;Signal;HPM_P1;HPM_P2
2021/05/10 00:03:35;;;;;;;5.47;3.97;;;;;;;10.29;55.96;99358.05;520418;1104;116164;-66
2021/05/10 00:13:43;;;;;;;7.43;4.40;;;;;;;10.13;56.23;99354.78;514135;1104;115535;-66
2021/05/10 00:23:48;;;;;;;5.33;4.07;;;;;;;9.95;56.77;99357.66;527009;1099;115900;-66
2021/05/10 00:33:52;;;;;;;6.73;5.07;;;;;;;9.77;57.43;99347.44;511406;1096;118165;-67
2021/05/10 00:43:57;;;;;;;6.60;4.57;;;;;;;9.59;57.56;99349.47;524318;1104;115700;-66
2021/05/10 00:54:01;;;;;;;6.80;4.40;;;;;;;9.42;58.32;99340.05;526301;1104;116213;-65
2021/05/10 01:04:06;;;;;;;5.93;4.17;;;;;;;9.28;58.85;99343.53;513233;1104;116453;-65
2021/05/10 01:14:10;;;;;;;4.40;3.77;;;;;;;9.07;59.22;99338.69;517737;1104;115735;-66
2021/05/10 01:24:15;;;;;;;7.43;5.03;;;;;;;8.83;59.70;99346.30;529126;1104;116162;-67
2021/05/10 01:34:20;;;;;;;5.13;4.50;;;;;;;8.67;60.38;99334.11;512986;1103;116416;-65
2021/05/10 01:44:25;;;;;;;5.63;5.03;;;;;;;8.63;60.44;99326.53;529262;1104;115968;-66
2021/05/10 01:54:29;;;;;;;5.40;4.37;;;;;;;8.63;61.06;99335.24;529275;1104;117604;-67
2021/05/10 02:05:07;;;;;;;6.67;5.00;;;;;;;8.63;60.91;99342.24;528493;1104;115672;-66
2021/05/10 02:15:14;;;;;;;6.08;4.93;;;;;;;8.71;61.10;99341.77;529283;1104;115662;-66
2021/05/10 02:25:20;;;;;;;5.70;4.40;;;;;;;8.66;61.20;99352.55;528513;1103;116852;-66
2021/05/10 02:35:26;;;;;;;6.10;4.67;;;;;;;8.62;61.47;99366.73;515956;1104;116150;-65
2021/05/10 02:45:30;;;;;;;4.57;4.17;;;;;;;8.59;62.04;99357.28;519794;1096;115427;-65
2021/05/10 02:55:36;;;;;;;6.30;4.50;;;;;;;8.58;62.14;99362.63;519344;1104;116411;-66
2021/05/10 03:05:41;;;;;;;6.07;4.00;;;;;;;8.49;62.12;99361.38;529382;1104;115967;-65
2021/05/10 03:15:46;;;;;;;5.40;4.30;;;;;;;8.50;62.42;99366.53;528624;1104;116508;-65
2021/05/10 03:25:50;;;;;;;4.60;4.20;;;;;;;8.61;62.57;99367.67;529289;1104;115883;-66
2021/05/10 03:35:55;;;;;;;5.20;4.70;;;;;;;8.78;61.99;99375.37;528788;1104;115626;-65
2021/05/10 03:46:00;;;;;;;7.23;5.47;;;;;;;9.04;61.71;99372.94;525906;1103;116259;-65
2021/05/10 03:56:06;;;;;;;6.30;4.17;;;;;;;9.36;61.32;99369.25;520181;1104;115552;-65
2021/05/10 04:16:30;;;;;;;4.13;2.97;;;;;;;16.29;56.42;99365.86;528488;1104;116915;-66
2021/05/10 04:26:35;;;;;;;3.57;2.93;;;;;;;19.79;44.40;99347.53;521179;1104;115627;-66
2021/05/10 04:36:39;;;;;;;6.70;3.40;;;;;;;15.05;47.28;99355.61;512096;1099;115781;-66
2021/05/10 04:46:44;;;;;;;4.93;2.90;;;;;;;14.34;49.48;99351.84;515295;1104;117385;-65
2021/05/10 04:56:50;;;;;;;4.13;2.67;;;;;;;25.04;41.91;99338.94;511674;1104;115625;-63
2021/05/10 05:06:55;;;;;;;2.60;2.30;;;;;;;30.44;33.27;99343.77;520327;1104;117172;-63
2021/05/10 05:16:59;;;;;;;2.97;2.67;;;;;;;33.19;28.82;99340.40;512586;1099;117244;-62
2021/05/10 05:27:05;;;;;;;2.80;2.43;;;;;;;36.38;25.12;99336.00;515708;1104;115489;-61
2021/05/10 05:37:10;;;;;;;3.68;2.15;;;;;;;38.82;22.32;99331.60;523954;1104;116358;-63
2021/05/10 05:47:21;;;;;;;4.50;2.35;;;;;;;40.52;19.75;99335.58;525856;1104;116597;-62
2021/05/10 05:57:26;;;;;;;8.10;2.57;;;;;;;41.65;18.61;99333.44;529123;1104;119255;-64
2021/05/10 06:07:31;;;;;;;2.50;2.20;;;;;;;42.42;16.92;99345.23;528564;1103;116292;-63
2021/05/10 06:17:37;;;;;;;2.83;2.40;;;;;;;41.31;16.16;99311.61;529263;1104;118427;-63
2021/05/10 06:27:41;;;;;;;4.85;2.33;;;;;;;43.25;15.52;99331.80;529288;1104;116265;-63
2021/05/10 06:37:46;;;;;;;3.55;1.95;;;;;;;43.38;14.39;99330.01;529198;1104;116189;-65
2021/05/10 06:47:51;;;;;;;3.30;2.10;;;;;;;43.34;13.33;99309.71;529274;1104;116129;-66
2021/05/10 06:58:07;;;;;;;3.55;2.40;;;;;;;45.00;13.45;99319.72;528468;1103;116409;-66
2021/05/10 07:08:13;;;;;;;2.10;1.90;;;;;;;44.63;12.65;99300.88;528155;1104;116072;-65
2021/05/10 07:18:19;;;;;;;2.50;2.38;;;;;;;46.61;12.06;99308.23;519798;1098;115357;-63
2021/05/10 07:28:24;;;;;;;5.08;3.88;;;;;;;46.55;11.67;99304.09;513799;1104;116528;-62
2021/05/10 07:38:28;;;;;;;3.08;2.73;;;;;;;46.51;10.99;99303.94;526569;1104;116533;-65
2021/05/10 07:48:32;;;;;;;3.53;3.23;;;;;;;47.37;10.99;99295.78;529231;1104;116081;-67
2021/05/10 07:58:40;;;;;;;3.33;1.70;;;;;;;44.84;10.63;99297.32;528578;1104;116660;-68
2021/05/10 08:08:45;;;;;;;4.15;1.75;;;;;;;34.50;14.50;99268.52;529309;1104;117445;-66
2021/05/10 08:18:49;;;;;;;2.23;1.50;;;;;;;29.90;17.57;99266.17;528576;1104;116837;-64
2021/05/10 08:28:54;;;;;;;3.17;1.13;;;;;;;27.47;19.67;99270.72;529235;1103;117057;-59
2021/05/10 08:38:58;;;;;;;1.30;1.10;;;;;;;25.78;21.79;99273.86;522002;1104;115805;-57
2021/05/10 08:49:04;;;;;;;3.83;1.23;;;;;;;24.74;23.53;99263.17;511214;1104;115592;-58
2021/05/10 08:59:08;;;;;;;1.03;1.00;;;;;;;24.43;24.35;99243.83;524611;1104;116819;-60
2021/05/10 09:09:13;;;;;;;1.43;1.33;;;;;;;24.42;25.03;99233.31;527513;1104;115903;-59
2021/05/10 09:19:18;;;;;;;2.85;1.33;;;;;;;24.63;25.09;99235.06;528496;1104;115656;-59
2021/05/10 09:29:27;;;;;;;3.00;1.48;;;;;;;24.29;26.08;99240.23;529205;1103;116074;-62
2021/05/10 09:39:36;;;;;;;3.73;0.83;;;;;;;24.07;26.46;99236.80;529242;1104;116572;-63
2021/05/10 09:49:49;;;;;;;1.87;1.43;;;;;;;24.23;26.48;99240.19;528526;1104;116415;-72
2021/05/10 10:00:15;;;;;;;0.83;0.63;;;;;;;24.37;25.16;99220.48;529268;1104;116077;-67
2021/05/10 10:10:20;;;;;;;1.93;0.87;;;;;;;24.39;25.06;99201.48;528539;1104;116387;-69
2021/05/10 10:20:25;;;;;;;2.13;1.03;;;;;;;24.43;25.16;99214.31;528633;1096;154243;-67
2021/05/10 10:30:32;;;;;;;1.55;1.10;;;;;;;24.51;25.07;99209.81;522362;1096;116171;-66
2021/05/10 10:40:37;;;;;;;1.00;0.90;;;;;;;24.40;24.75;99197.77;528585;1104;116165;-63
2021/05/10 10:51:00;;;;;;;1.60;1.03;;;;;;;24.44;24.79;99204.42;516246;1104;115752;-72
2021/05/10 11:01:07;;;;;;;2.57;0.70;;;;;;;24.48;24.67;99192.25;511980;1100;115857;-64
2021/05/10 11:11:14;;;;;;;1.30;0.80;;;;;;;24.45;24.35;99185.42;520571;1100;116492;-68
2021/05/10 11:21:42;;;;;;;4.20;0.85;;;;;;;24.48;24.40;99187.73;529292;1104;116104;-63
2021/05/10 11:31:47;;;;;;;1.73;0.83;;;;;;;24.52;24.35;99179.27;529214;1104;115955;-68
2021/05/10 11:41:57;;;;;;;2.23;0.70;;;;;;;24.61;24.18;99165.47;528357;1100;117621;-64
2021/05/10 11:52:06;;;;;;;2.33;0.90;;;;;;;24.68;24.12;99165.48;516751;1104;115638;-68
2021/05/10 12:02:18;;;;;;;1.23;0.63;;;;;;;24.66;24.00;99180.16;529245;1104;117268;-64
2021/05/10 12:12:28;;;;;;;1.17;0.70;;;;;;;24.69;24.30;99158.28;529256;1104;117070;-71
2021/05/10 12:22:37;;;;;;;2.73;0.80;;;;;;;24.80;24.98;99160.41;528565;1104;116533;-63
2021/05/10 12:32:42;;;;;;;;;;;;;;;24.88;24.49;99148.65;519551;1104;116019;-66
2021/05/10 12:43:04;;;;;;;1.80;0.83;;;;;;;24.79;24.98;99144.48;525685;1104;102680;-61
2021/05/10 12:53:10;;;;;;;3.10;0.83;;;;;;;24.85;25.19;99149.06;515277;1104;116302;-63
2021/05/10 13:03:33;;;;;;;3.60;0.90;;;;;;;24.89;25.41;99156.52;524882;1104;115645;-77
2021/05/10 13:13:50;;;;;;;1.60;0.80;;;;;;;24.87;25.55;99145.13;528386;1104;117629;-66
2021/05/10 13:34:24;;;;;;;1.60;0.90;;;;;;;25.09;25.87;99128.84;528483;1104;116496;-64
2021/05/10 13:44:29;;;;;;;4.07;1.20;;;;;;;25.50;26.12;99135.09;529697;1101;115725;-61
2021/05/10 13:54:34;;;;;;;3.03;0.90;;;;;;;25.49;25.30;99137.97;521758;1101;116463;-63
2021/05/10 14:04:39;;;;;;;3.50;1.47;;;;;;;25.77;25.63;99128.86;521307;1101;115760;-71
2021/05/10 14:14:43;;;;;;;2.40;1.20;;;;;;;26.06;25.30;99132.93;515539;1097;115425;-70
2021/05/10 14:24:48;;;;;;;1.60;1.17;;;;;;;26.56;24.95;99124.28;522049;1101;116832;-69
2021/05/10 14:34:53;;;;;;;2.90;1.68;;;;;;;26.88;24.42;99106.53;524183;1104;116900;-67
2021/05/10 14:44:57;;;;;;;1.95;1.10;;;;;;;26.98;23.83;99107.69;522263;1101;116111;-63
2021/05/10 14:55:01;;;;;;;1.67;0.73;;;;;;;26.59;24.67;99112.27;522212;1101;115890;-63
2021/05/10 15:05:08;;;;;;;2.93;1.10;;;;;;;26.22;24.85;99104.77;528357;1101;116037;-60
2021/05/10 15:15:15;;;;;;;1.75;1.18;;;;;;;25.93;25.18;99114.98;529221;1104;118116;-66
2021/05/10 15:25:20;;;;;;;5.43;1.48;;;;;;;25.68;25.45;99106.75;528841;1101;116267;-66
2021/05/10 15:35:26;;;;;;;3.63;1.47;;;;;;;25.53;26.10;99099.75;526509;1101;116922;-65
2021/05/10 15:45:30;;;;;;;1.40;1.20;;;;;;;25.39;26.62;99114.18;527488;1101;116492;-66
2021/05/10 15:55:35;;;;;;;4.10;1.33;;;;;;;25.43;26.73;99104.69;522830;1101;116315;-66
2021/05/10 16:05:39;;;;;;;4.93;1.67;;;;;;;25.55;27.15;99110.28;529522;1101;116724;-65
2021/05/10 16:15:44;;;;;;;2.90;1.23;;;;;;;25.64;27.19;99114.41;517290;1096;115947;-61
2021/05/10 16:25:48;;;;;;;2.03;1.03;;;;;;;25.59;27.52;99115.03;524194;1101;175451;-63
2021/05/10 16:35:53;;;;;;;2.08;1.20;;;;;;;25.58;27.25;99116.06;506414;1101;10001470;-66
2021/05/10 16:45:57;;;;;;;3.00;1.10;;;;;;;25.51;27.77;99126.02;512195;1102;116159;-63
2021/05/10 16:56:03;;;;;;;3.90;2.13;;;;;;;25.87;27.30;99129.26;529425;1101;116385;-63
2021/05/10 17:06:07;;;;;;;3.57;1.10;;;;;;;25.36;28.14;99130.73;519950;1097;115803;-62
2021/05/10 17:16:16;;;;;;;5.27;1.33;;;;;;;25.07;28.88;99146.22;511284;1096;115962;-68
2021/05/10 17:26:20;;;;;;;4.17;1.53;;;;;;;24.91;28.81;99148.23;522630;1102;116924;-66
2021/05/10 17:36:25;;;;;;;2.27;1.40;;;;;;;24.35;29.77;99147.39;529200;1104;117954;-65
2021/05/10 17:46:30;;;;;;;1.97;1.87;;;;;;;23.81;30.43;99155.13;528562;1101;116512;-66
2021/05/10 17:56:36;;;;;;;7.00;2.25;;;;;;;23.28;31.41;99161.70;518353;1101;116113;-67
2021/05/10 18:06:42;;;;;;;2.80;2.27;;;;;;;22.73;32.57;99154.12;529616;1101;116412;-68
2021/05/10 18:16:49;;;;;;;4.80;2.47;;;;;;;22.18;33.75;99169.66;524352;1101;115711;-73
2021/05/10 18:26:54;;;;;;;4.70;3.50;;;;;;;21.64;34.77;99177.69;526253;1101;115871;-72
2021/05/10 18:47:20;;;;;;;5.97;3.77;;;;;;;20.65;36.94;99191.66;519569;1096;116377;-68
2021/05/10 18:57:25;;;;;;;7.80;4.37;;;;;;;20.19;37.63;99205.66;519751;1104;116277;-71
2021/05/10 19:07:30;;;;;;;5.10;2.53;;;;;;;19.85;37.89;99220.83;520431;1101;115859;-70
2021/05/10 19:17:35;;;;;;;4.13;2.37;;;;;;;19.57;37.90;99218.52;525775;1101;116427;-70
2021/05/10 19:27:41;;;;;;;3.97;2.20;;;;;;;19.34;38.17;99219.16;528618;1097;117129;-70
2021/05/10 19:37:45;;;;;;;3.43;2.60;;;;;;;19.12;38.10;99225.96;514401;1104;116108;-69
2021/05/10 19:48:05;;;;;;;2.93;2.43;;;;;;;18.88;38.56;99209.73;512049;1101;116365;-66
2021/05/10 19:58:17;;;;;;;9.63;3.50;;;;;;;18.55;38.93;99212.27;513160;1096;116116;-68
2021/05/10 20:08:21;;;;;;;6.57;3.07;;;;;;;18.33;39.34;99208.34;512086;1101;115960;-64
2021/05/10 20:18:26;;;;;;;4.63;2.45;;;;;;;18.10;39.74;99210.70;512772;1101;117804;-64
2021/05/10 20:28:33;;;;;;;3.90;2.40;;;;;;;17.91;40.26;99209.90;512959;1101;168920;-63
2021/05/10 20:38:38;;;;;;;4.40;3.00;;;;;;;17.71;40.59;99215.39;511897;1101;116317;-62
2021/05/10 20:48:43;;;;;;;8.53;2.87;;;;;;;17.44;41.06;99225.13;512534;1096;115693;-63
2021/05/10 20:58:48;;;;;;;4.37;2.80;;;;;;;17.17;41.61;99224.19;517312;1101;116035;-65
2021/05/10 21:08:53;;;;;;;5.70;2.93;;;;;;;16.89;42.31;99236.61;517977;1101;117414;-64
2021/05/10 21:18:57;;;;;;;5.63;2.63;;;;;;;16.73;42.93;99239.90;516358;1096;116219;-63
2021/05/10 21:29:02;;;;;;;6.17;3.33;;;;;;;16.58;43.25;99247.52;512244;1102;116044;-58
2021/05/10 21:39:08;;;;;;;5.00;3.00;;;;;;;16.30;43.60;99263.36;505959;1101;10001891;-60
2021/05/10 21:49:12;;;;;;;5.17;3.50;;;;;;;16.06;44.27;99262.02;525371;1102;116832;-61
2021/05/10 21:59:17;;;;;;;5.17;2.80;;;;;;;15.91;44.61;99261.61;511629;1104;116304;-61
2021/05/10 22:09:21;;;;;;;4.13;3.73;;;;;;;15.71;45.25;99264.26;515769;1101;117918;-62
2021/05/10 22:19:27;;;;;;;6.83;4.13;;;;;;;15.50;45.69;99259.94;517150;1101;115969;-64
2021/05/10 22:29:32;;;;;;;4.57;3.40;;;;;;;15.33;46.17;99264.09;513889;1101;116496;-61
2021/05/10 22:39:43;;;;;;;4.83;4.07;;;;;;;15.17;46.79;99248.75;518660;1101;116540;-62
2021/05/10 23:21:10;;;;;;;5.60;4.50;;;;;;;14.62;48.07;99231.45;520683;1101;117455;-61
2021/05/10 23:31:15;;;;;;;6.63;3.83;;;;;;;14.45;48.49;99235.55;511995;1096;115574;-63
2021/05/10 23:41:20;;;;;;;3.90;3.37;;;;;;;14.29;48.86;99243.95;511489;1096;117604;-61
2021/05/10 23:51:25;;;;;;;5.80;3.57;;;;;;;14.15;49.40;99240.69;518961;1101;116156;-63
